Terminal Aerodrome Forecast
Issued by NWS El Paso, TX

Home | Current Version | Previous Version | Text Only | Print | Product List | Glossary On
Versions: 1 2 3 4 5 6 7 8 9 10 11 12 13 14 15 16 17 18 19
000
FTUS44 KEPZ 211100
TAFELP
TAF
KELP 211130Z 2112/2212 07009KT P6SM SCT100 SCT250
     FM211800 11010KT P6SM VCTS SCT050CB SCT100 BKN200
      TEMPO 2202/2206 VRB25G35KT 3SM TSRA BKN040CB OVC080
     FM220600 09007KT P6SM VCSH BKN040 OVC080=

USA.gov is the U.S. government's official web portal to all federal, state and local government web resources and services.